createdAt,value
2022-10-17T00:00:13.452Z,66.99
2022-10-17T00:02:40.063Z,66.44
2022-10-17T00:05:06.690Z,66.67
2022-10-17T00:07:33.303Z,67.07
2022-10-17T00:09:59.888Z,67.36
2022-10-17T00:12:26.522Z,67.14
2022-10-17T00:14:53.139Z,66.93
2022-10-17T00:17:19.731Z,66.44
2022-10-17T00:19:46.371Z,66.84
2022-10-17T00:22:13.019Z,67.02
2022-10-17T00:24:39.650Z,66.85
2022-10-17T00:27:06.282Z,66.98
2022-10-17T00:29:32.863Z,66.58
2022-10-17T00:31:59.500Z,66.82
2022-10-17T00:34:26.114Z,66.31
2022-10-17T00:36:52.707Z,66.24
2022-10-17T00:39:19.375Z,66.34
2022-10-17T00:41:45.988Z,66.16
2022-10-17T00:44:12.604Z,66.53
2022-10-17T00:46:39.263Z,66.40
2022-10-17T00:49:05.852Z,66.49
2022-10-17T00:51:32.476Z,66.69
2022-10-17T00:53:59.077Z,66.72
2022-10-17T00:56:25.689Z,66.82
2022-10-17T00:58:52.410Z,66.72
2022-10-17T01:01:19.090Z,66.51
2022-10-17T01:03:45.758Z,66.78
2022-10-17T01:06:12.377Z,66.57
2022-10-17T01:08:39.023Z,66.38
2022-10-17T01:11:05.625Z,66.45
2022-10-17T01:13:32.242Z,66.48
2022-10-17T01:15:58.840Z,66.38
2022-10-17T01:18:25.495Z,66.13
2022-10-17T01:20:52.083Z,66.19
2022-10-17T01:23:18.691Z,66.12
2022-10-17T01:25:45.313Z,66.43
2022-10-17T01:28:11.922Z,66.58
2022-10-17T01:30:38.526Z,66.17
2022-10-17T01:33:05.183Z,65.71
2022-10-17T01:35:31.804Z,66.75
2022-10-17T01:37:58.429Z,66.93
2022-10-17T01:40:25.025Z,66.26
2022-10-17T01:42:51.666Z,66.55
2022-10-17T01:45:18.253Z,66.38
2022-10-17T01:47:44.875Z,66.40
2022-10-17T01:50:11.467Z,66.35
2022-10-17T01:52:38.152Z,66.16
2022-10-17T01:55:04.768Z,66.11
2022-10-17T01:57:31.568Z,65.91
2022-10-17T01:59:58.370Z,66.59
2022-10-17T02:02:24.976Z,67.23
2022-10-17T02:04:51.703Z,67.13
2022-10-17T02:07:18.350Z,66.67
2022-10-17T02:09:44.968Z,66.46
2022-10-17T02:12:11.559Z,66.50
2022-10-17T02:14:38.163Z,66.48
2022-10-17T02:17:04.771Z,66.65
2022-10-17T02:19:31.364Z,66.31
2022-10-17T02:21:57.984Z,66.03
2022-10-17T02:24:24.584Z,66.17
2022-10-17T02:26:51.200Z,65.51
2022-10-17T02:29:17.838Z,65.38
2022-10-17T02:31:44.698Z,65.28
2022-10-17T02:34:11.314Z,65.50
2022-10-17T02:36:37.923Z,65.40
2022-10-17T02:39:04.538Z,65.09
2022-10-17T02:41:31.154Z,65.38
2022-10-17T02:44:00.159Z,65.77
2022-10-17T02:46:28.960Z,66.70
2022-10-17T02:48:55.547Z,66.57
2022-10-17T02:51:22.158Z,66.09
2022-10-17T02:53:57.774Z,66.47
2022-10-17T02:56:24.415Z,66.01
2022-10-17T02:58:51.075Z,66.35
2022-10-17T03:01:17.723Z,65.71
2022-10-17T03:03:44.401Z,65.73
2022-10-17T03:06:11.011Z,65.86
2022-10-17T03:11:05.135Z,65.60
2022-10-17T03:13:33.031Z,65.56
2022-10-17T03:16:01.658Z,64.90
2022-10-17T03:18:28.253Z,65.25
2022-10-17T03:20:54.884Z,64.87
2022-10-17T03:23:21.473Z,65.43
2022-10-17T03:25:48.149Z,64.99
2022-10-17T03:30:58.758Z,65.10
2022-10-17T03:33:25.338Z,65.57
2022-10-17T03:35:52.013Z,65.29
2022-10-17T03:38:18.650Z,65.17
2022-10-17T03:40:45.264Z,65.57
2022-10-17T03:43:11.891Z,65.05
2022-10-17T03:45:38.492Z,65.66
2022-10-17T03:48:05.100Z,65.67
2022-10-17T03:50:31.697Z,65.96
2022-10-17T03:52:58.294Z,65.62
2022-10-17T03:55:24.923Z,65.23
2022-10-17T03:57:51.542Z,65.91
2022-10-17T04:00:18.155Z,65.77
2022-10-17T04:02:44.762Z,66.52
2022-10-17T04:05:11.384Z,65.90
2022-10-17T04:07:38.026Z,65.87
2022-10-17T04:10:04.792Z,65.76
2022-10-17T04:12:31.792Z,65.47
2022-10-17T04:14:58.613Z,65.81
2022-10-17T04:17:25.202Z,66.24
2022-10-17T04:19:51.844Z,66.63
2022-10-17T04:22:18.442Z,66.07
2022-10-17T04:24:45.081Z,65.54
2022-10-17T04:27:11.689Z,65.70
2022-10-17T04:29:38.310Z,66.76
2022-10-17T04:32:04.899Z,66.10
2022-10-17T04:34:31.506Z,66.01
2022-10-17T04:36:58.107Z,65.95
2022-10-17T04:39:24.732Z,66.23
2022-10-17T04:41:51.339Z,66.27
2022-10-17T04:44:17.970Z,67.16
2022-10-17T04:46:44.584Z,67.27
2022-10-17T04:49:11.176Z,66.84
2022-10-17T04:51:37.816Z,66.64
2022-10-17T04:54:04.402Z,66.66
2022-10-17T04:56:31.015Z,66.61
2022-10-17T04:58:57.628Z,66.08
2022-10-17T05:01:24.307Z,66.22
2022-10-17T05:03:50.936Z,67.63
2022-10-17T05:06:17.584Z,66.94
2022-10-17T05:08:44.180Z,67.19
2022-10-17T05:11:10.801Z,66.72
2022-10-17T05:13:37.439Z,66.65
2022-10-17T05:16:04.079Z,66.66
2022-10-17T05:18:30.698Z,66.50
2022-10-17T05:20:57.343Z,67.09
2022-10-17T05:23:23.983Z,66.86
2022-10-17T05:25:50.593Z,67.03
2022-10-17T05:28:17.214Z,67.47
2022-10-17T05:30:43.827Z,67.42
2022-10-17T05:33:10.453Z,66.82
2022-10-17T05:35:37.099Z,66.70
2022-10-17T05:38:03.706Z,67.54
2022-10-17T05:40:30.326Z,68.16
2022-10-17T05:42:56.940Z,67.76
2022-10-17T05:45:23.530Z,67.44
2022-10-17T05:47:50.186Z,67.56
2022-10-17T05:50:16.795Z,67.44
2022-10-17T05:52:45.194Z,67.39
2022-10-17T05:55:13.821Z,66.85
2022-10-17T05:57:40.418Z,66.97
2022-10-17T06:00:07.006Z,67.63
2022-10-17T06:02:33.796Z,67.27
2022-10-17T06:05:00.735Z,66.75
2022-10-17T06:07:27.365Z,67.83
2022-10-17T06:09:53.956Z,68.07
2022-10-17T06:12:20.580Z,68.25
2022-10-17T06:14:47.179Z,68.32
2022-10-17T06:17:16.277Z,67.91
2022-10-17T06:19:43.113Z,67.34
2022-10-17T06:22:09.729Z,67.18
2022-10-17T06:24:36.346Z,66.92
2022-10-17T06:27:03.757Z,67.07
2022-10-17T06:29:32.428Z,66.68
2022-10-17T06:31:59.054Z,67.31
2022-10-17T06:34:25.672Z,67.68
2022-10-17T06:36:52.355Z,67.54
2022-10-17T06:39:19.013Z,67.68
2022-10-17T06:41:45.635Z,67.96
2022-10-17T06:44:12.234Z,68.15
2022-10-17T06:46:38.823Z,67.55
2022-10-17T06:49:05.484Z,66.95
2022-10-17T06:51:32.071Z,66.70
2022-10-17T06:53:58.716Z,66.93
2022-10-17T06:56:25.311Z,66.92
2022-10-17T06:58:51.906Z,66.93
2022-10-17T07:01:18.555Z,66.52
2022-10-17T07:03:45.192Z,66.75
2022-10-17T07:06:11.787Z,67.43
2022-10-17T07:08:38.415Z,67.18
2022-10-17T07:11:05.043Z,66.84
2022-10-17T07:13:34.485Z,66.59
2022-10-17T07:16:04.814Z,67.41
2022-10-17T07:18:31.433Z,66.59
2022-10-17T07:20:58.028Z,66.18
2022-10-17T07:23:24.616Z,66.14
2022-10-17T07:25:51.234Z,65.42
2022-10-17T07:28:17.832Z,65.08
2022-10-17T07:30:44.452Z,65.42
2022-10-17T07:33:11.066Z,64.92
2022-10-17T07:35:37.687Z,65.41
2022-10-17T07:38:04.330Z,64.97
2022-10-17T07:40:31.049Z,64.95
2022-10-17T07:42:57.655Z,64.77
2022-10-17T07:45:24.281Z,64.71
2022-10-17T07:47:50.931Z,64.11
2022-10-17T07:50:17.522Z,63.78
2022-10-17T07:52:44.148Z,63.48
2022-10-17T07:55:10.769Z,63.60
2022-10-17T08:00:21.329Z,63.15
2022-10-17T08:02:47.921Z,63.15
2022-10-17T08:05:14.559Z,62.96
2022-10-17T08:07:41.148Z,62.78
2022-10-17T08:12:39.254Z,62.28
2022-10-17T08:15:05.867Z,61.96
2022-10-17T08:17:32.482Z,61.32
2022-10-17T08:19:59.080Z,60.84
2022-10-17T08:22:25.691Z,61.50
2022-10-17T08:24:52.312Z,60.59
2022-10-17T08:27:18.939Z,60.61
2022-10-17T08:29:45.597Z,60.27
2022-10-17T08:32:12.186Z,59.92
2022-10-17T08:34:38.795Z,60.36
2022-10-17T08:37:05.450Z,59.94
2022-10-17T08:39:32.073Z,59.57
2022-10-17T08:41:58.870Z,58.91
2022-10-17T08:44:25.489Z,59.01
2022-10-17T08:46:52.088Z,58.72
2022-10-17T08:49:18.705Z,58.38
2022-10-17T08:51:45.299Z,58.57
2022-10-17T08:54:11.891Z,58.61
2022-10-17T08:56:47.924Z,58.04
2022-10-17T08:59:15.309Z,57.36
2022-10-17T09:01:41.935Z,56.54
2022-10-17T09:04:08.527Z,56.66
2022-10-17T09:06:35.245Z,56.53
2022-10-17T09:09:01.927Z,55.83
2022-10-17T09:11:28.520Z,55.29
2022-10-17T09:13:55.155Z,54.51
2022-10-17T09:16:21.752Z,55.71
2022-10-17T09:18:48.407Z,56.22
2022-10-17T09:21:15.008Z,56.47
2022-10-17T09:23:42.510Z,55.81
2022-10-17T09:26:09.328Z,55.66
2022-10-17T09:28:35.962Z,54.56
2022-10-17T09:31:02.812Z,54.02
2022-10-17T09:33:35.415Z,53.38
2022-10-17T09:36:09.100Z,53.47
2022-10-17T09:38:35.686Z,53.84
2022-10-17T09:41:02.347Z,52.96
2022-10-17T09:43:29.035Z,52.97
2022-10-17T09:45:55.628Z,52.78
2022-10-17T09:48:22.258Z,54.10
2022-10-17T09:50:57.831Z,55.30
2022-10-17T09:53:35.022Z,56.21
2022-10-17T09:56:01.625Z,54.58
2022-10-17T09:58:28.244Z,53.16
2022-10-17T10:00:54.866Z,53.33
2022-10-17T10:03:21.528Z,54.05
2022-10-17T10:05:48.141Z,53.26
2022-10-17T10:08:14.783Z,53.05
2022-10-17T10:10:41.402Z,52.34
2022-10-17T10:13:08.891Z,51.05
2022-10-17T10:15:35.537Z,51.94
2022-10-17T10:18:02.124Z,50.89
2022-10-17T10:20:28.746Z,50.42
2022-10-17T10:22:58.178Z,50.78
2022-10-17T10:25:24.856Z,51.39
2022-10-17T10:27:51.448Z,50.89
2022-10-17T10:30:18.087Z,51.38
2022-10-17T10:32:44.670Z,50.97
2022-10-17T10:35:11.291Z,51.42
2022-10-17T10:37:37.905Z,51.04
2022-10-17T10:40:04.516Z,51.00
2022-10-17T10:42:31.115Z,50.62
2022-10-17T10:44:57.747Z,51.84
2022-10-17T10:47:24.335Z,50.62
2022-10-17T10:49:50.970Z,50.75
2022-10-17T10:52:17.629Z,51.93
2022-10-17T10:54:44.227Z,50.56
2022-10-17T10:57:10.843Z,50.30
2022-10-17T10:59:37.506Z,49.33
2022-10-17T11:02:04.087Z,49.25
2022-10-17T11:04:30.724Z,49.62
2022-10-17T11:06:57.495Z,49.44
2022-10-17T11:09:24.121Z,48.47
2022-10-17T11:11:51.398Z,49.06
2022-10-17T11:14:18.569Z,49.54
2022-10-17T11:16:45.307Z,48.79
2022-10-17T11:19:12.018Z,48.50
2022-10-17T11:21:38.726Z,48.70
2022-10-17T11:24:06.920Z,48.42
2022-10-17T11:26:35.088Z,49.79
2022-10-17T11:29:01.817Z,48.84
2022-10-17T11:31:28.664Z,48.73
2022-10-17T11:33:55.368Z,48.93
2022-10-17T11:36:22.013Z,47.13
2022-10-17T11:38:48.728Z,48.33
2022-10-17T11:41:15.476Z,48.25
2022-10-17T11:43:42.131Z,47.48
2022-10-17T11:46:08.913Z,46.29
2022-10-17T11:48:35.591Z,48.41
2022-10-17T11:53:48.979Z,46.65
2022-10-17T11:56:15.643Z,47.15
2022-10-17T11:58:42.318Z,47.22
2022-10-17T12:01:09.152Z,45.90
2022-10-17T12:03:35.980Z,44.59
2022-10-17T12:06:02.682Z,44.79
2022-10-17T12:08:31.278Z,44.99
2022-10-17T12:10:58.081Z,43.70
2022-10-17T12:13:24.976Z,45.17
2022-10-17T12:15:51.692Z,46.45
2022-10-17T12:18:18.484Z,47.50
2022-10-17T12:20:45.146Z,46.76
2022-10-17T12:23:11.895Z,45.55
2022-10-17T12:25:38.625Z,45.54
2022-10-17T12:30:49.789Z,46.04
2022-10-17T12:33:16.581Z,45.83
2022-10-17T12:35:43.285Z,45.42
2022-10-17T12:38:09.911Z,44.91
2022-10-17T12:40:36.578Z,44.68
2022-10-17T12:43:03.291Z,43.11
2022-10-17T12:45:29.971Z,44.11
2022-10-17T12:47:56.654Z,44.47
2022-10-17T12:50:23.738Z,45.04
2022-10-17T12:55:22.107Z,46.26
2022-10-17T12:57:48.762Z,44.66
2022-10-17T13:00:15.649Z,44.68
2022-10-17T13:02:42.469Z,44.46
2022-10-17T13:05:09.056Z,43.79
2022-10-17T13:07:35.722Z,44.54
2022-10-17T13:10:02.531Z,44.69
2022-10-17T13:12:29.401Z,44.23
2022-10-17T13:14:56.180Z,46.56
2022-10-17T13:17:22.951Z,46.82
2022-10-17T13:19:49.571Z,46.40
2022-10-17T13:22:16.356Z,48.10
2022-10-17T13:24:43.075Z,46.95
2022-10-17T13:27:09.712Z,46.66
2022-10-17T13:29:36.394Z,47.92
2022-10-17T13:32:03.051Z,47.37
2022-10-17T13:34:29.640Z,47.01
2022-10-17T13:36:56.379Z,47.02
2022-10-17T13:39:38.507Z,46.37
2022-10-17T13:42:11.366Z,46.89
2022-10-17T13:44:42.684Z,46.08
2022-10-17T13:47:10.013Z,46.46
2022-10-17T13:49:36.648Z,47.59
2022-10-17T13:52:03.280Z,48.55
2022-10-17T13:54:29.881Z,46.81
2022-10-17T13:56:56.579Z,47.51
2022-10-17T13:59:23.205Z,46.38
2022-10-17T14:01:49.825Z,46.74
2022-10-17T14:04:20.098Z,46.33
2022-10-17T14:06:49.467Z,45.74
2022-10-17T14:09:17.955Z,46.60
2022-10-17T14:11:44.581Z,46.61
2022-10-17T14:14:11.169Z,46.42
2022-10-17T14:16:37.789Z,45.83
2022-10-17T14:19:04.413Z,47.09
2022-10-17T14:21:44.374Z,49.09
2022-10-17T14:24:11.351Z,49.04
2022-10-17T14:26:37.967Z,48.01
2022-10-17T14:29:04.674Z,47.74
2022-10-17T14:31:31.453Z,49.11
2022-10-17T14:33:58.091Z,49.02
2022-10-17T14:36:24.716Z,49.81
2022-10-17T14:38:51.307Z,51.05
2022-10-17T14:44:04.534Z,52.46
2022-10-17T14:46:31.154Z,51.65
2022-10-17T14:48:57.773Z,50.53
2022-10-17T14:51:24.359Z,49.97
2022-10-17T14:53:51.016Z,49.95
2022-10-17T14:56:17.616Z,49.72
2022-10-17T14:58:44.199Z,50.84
2022-10-17T15:01:10.843Z,50.90
2022-10-17T15:03:37.514Z,50.54
2022-10-17T15:06:04.180Z,50.46
2022-10-17T15:08:30.819Z,50.90
2022-10-17T15:10:57.466Z,51.63
2022-10-17T15:13:28.815Z,51.65
2022-10-17T15:15:56.199Z,51.07
2022-10-17T15:18:22.809Z,51.35
2022-10-17T15:20:55.372Z,51.92
2022-10-17T15:23:31.372Z,51.86
2022-10-17T15:25:57.995Z,51.85
2022-10-17T15:28:24.678Z,51.86
2022-10-17T15:30:51.312Z,51.75
2022-10-17T15:33:17.948Z,52.18
2022-10-17T15:35:44.862Z,52.68
2022-10-17T15:38:11.501Z,52.58
2022-10-17T15:40:38.106Z,52.56
2022-10-17T15:43:04.750Z,52.39
2022-10-17T15:45:31.353Z,52.91
2022-10-17T15:47:57.997Z,53.11
2022-10-17T15:50:24.618Z,53.00
2022-10-17T15:52:51.251Z,53.70
2022-10-17T15:55:17.893Z,53.85
2022-10-17T15:57:44.507Z,54.20
2022-10-17T16:00:16.187Z,54.38
2022-10-17T16:02:43.208Z,55.01
2022-10-17T16:05:09.797Z,54.50
2022-10-17T16:07:36.393Z,55.21
2022-10-17T16:10:03.009Z,55.54
2022-10-17T16:12:29.604Z,55.85
2022-10-17T16:14:56.227Z,56.48
2022-10-17T16:17:22.863Z,56.15
2022-10-17T16:19:49.491Z,56.31
2022-10-17T16:22:16.103Z,56.49
2022-10-17T16:24:42.705Z,56.24
2022-10-17T16:27:09.384Z,56.66
2022-10-17T16:29:36.019Z,57.13
2022-10-17T16:32:02.617Z,57.04
2022-10-17T16:34:29.231Z,57.40
2022-10-17T16:36:55.828Z,57.44
2022-10-17T16:39:22.500Z,57.33
2022-10-17T16:41:49.179Z,57.38
2022-10-17T16:44:15.781Z,57.15
2022-10-17T16:46:42.390Z,57.44
2022-10-17T16:49:09.008Z,57.95
2022-10-17T16:51:35.611Z,57.52
2022-10-17T16:54:02.252Z,57.48
2022-10-17T16:56:28.842Z,58.60
2022-10-17T16:58:55.465Z,58.74
2022-10-17T17:01:22.086Z,58.41
2022-10-17T17:03:48.688Z,58.01
2022-10-17T17:06:15.312Z,57.55
2022-10-17T17:08:42.119Z,57.95
2022-10-17T17:11:08.779Z,58.36
2022-10-17T17:13:35.375Z,57.77
2022-10-17T17:16:02.018Z,58.19
2022-10-17T17:18:28.640Z,58.61
2022-10-17T17:20:55.324Z,58.20
2022-10-17T17:23:21.928Z,58.28
2022-10-17T17:25:48.555Z,59.25
2022-10-17T17:28:15.165Z,59.40
2022-10-17T17:30:41.780Z,59.65
2022-10-17T17:33:08.383Z,59.34
2022-10-17T17:35:35.000Z,59.19
2022-10-17T17:38:01.589Z,59.24
2022-10-17T17:40:28.209Z,59.60
2022-10-17T17:42:54.901Z,60.19
2022-10-17T17:45:21.554Z,59.33
2022-10-17T17:47:48.181Z,59.73
2022-10-17T17:50:14.776Z,60.04
2022-10-17T17:52:41.411Z,60.46
2022-10-17T17:55:08.003Z,60.51
2022-10-17T17:57:34.596Z,60.05
2022-10-17T18:00:01.212Z,60.44
2022-10-17T18:02:27.966Z,60.29
2022-10-17T18:04:54.802Z,60.93
2022-10-17T18:07:21.419Z,61.97
2022-10-17T18:09:48.121Z,61.95
2022-10-17T18:12:14.761Z,62.44
2022-10-17T18:14:41.352Z,61.97
2022-10-17T18:17:07.983Z,61.76
2022-10-17T18:19:34.579Z,61.59
2022-10-17T18:22:01.205Z,61.68
2022-10-17T18:24:27.847Z,61.08
2022-10-17T18:26:54.468Z,60.98
2022-10-17T18:29:21.087Z,61.51
2022-10-17T18:31:47.692Z,61.91
2022-10-17T18:34:14.313Z,61.79
2022-10-17T18:36:40.903Z,62.04
2022-10-17T18:39:07.526Z,62.19
2022-10-17T18:41:34.165Z,62.48
2022-10-17T18:44:00.775Z,62.50
2022-10-17T18:46:27.395Z,62.02
2022-10-17T18:48:54.011Z,61.87
2022-10-17T18:51:20.607Z,62.20
2022-10-17T18:53:47.251Z,62.00
2022-10-17T18:56:13.855Z,62.00
2022-10-17T18:58:40.521Z,61.96
2022-10-17T19:01:07.228Z,61.89
2022-10-17T19:03:33.854Z,62.09
2022-10-17T19:06:01.197Z,62.80
2022-10-17T19:08:27.885Z,62.44
2022-10-17T19:10:54.528Z,62.16
2022-10-17T19:13:21.738Z,62.31
2022-10-17T19:15:48.534Z,62.43
2022-10-17T19:18:15.130Z,62.27
2022-10-17T19:20:41.785Z,61.94
2022-10-17T19:23:08.389Z,62.82
2022-10-17T19:25:35.009Z,63.12
2022-10-17T19:28:01.620Z,62.88
2022-10-17T19:30:28.248Z,62.81
2022-10-17T19:32:54.888Z,62.36
2022-10-17T19:35:21.479Z,63.13
2022-10-17T19:37:48.088Z,63.43
2022-10-17T19:40:14.709Z,62.87
2022-10-17T19:42:41.313Z,63.17
2022-10-17T19:45:08.304Z,62.70
2022-10-17T19:47:35.004Z,63.88
2022-10-17T19:50:01.604Z,63.91
2022-10-17T19:52:28.563Z,64.25
2022-10-17T19:54:55.377Z,64.27
2022-10-17T19:57:21.962Z,63.46
2022-10-17T19:59:50.290Z,63.10
2022-10-17T20:02:19.074Z,63.06
2022-10-17T20:04:54.565Z,63.51
2022-10-17T20:07:32.287Z,62.86
2022-10-17T20:09:58.889Z,64.15
2022-10-17T20:12:25.511Z,65.08
2022-10-17T20:14:52.127Z,64.47
2022-10-17T20:17:18.722Z,64.28
2022-10-17T20:19:45.349Z,64.05
2022-10-17T20:22:11.948Z,63.67
2022-10-17T20:24:38.553Z,63.35
2022-10-17T20:27:05.156Z,63.20
2022-10-17T20:29:31.775Z,62.95
2022-10-17T20:31:58.422Z,62.97
2022-10-17T20:34:25.032Z,62.72
2022-10-17T20:36:51.659Z,62.71
2022-10-17T20:39:18.315Z,62.48
2022-10-17T20:41:44.896Z,63.04
2022-10-17T20:44:11.523Z,63.47
2022-10-17T20:46:44.428Z,63.60
2022-10-17T20:49:11.757Z,62.78
2022-10-17T20:51:38.343Z,62.51
2022-10-17T20:54:04.950Z,62.87
2022-10-17T20:56:31.545Z,62.75
2022-10-17T20:58:58.166Z,63.52
2022-10-17T21:01:24.784Z,64.01
2022-10-17T21:03:51.433Z,63.65
2022-10-17T21:06:18.061Z,63.97
2022-10-17T21:08:44.680Z,63.77
2022-10-17T21:11:11.289Z,64.04
2022-10-17T21:13:37.881Z,64.04
2022-10-17T21:16:04.530Z,64.14
2022-10-17T21:18:31.178Z,63.93
2022-10-17T21:20:57.841Z,63.84
2022-10-17T21:23:24.522Z,64.21
2022-10-17T21:25:51.130Z,64.11
2022-10-17T21:28:17.720Z,64.18
2022-10-17T21:30:44.338Z,64.04
2022-10-17T21:33:10.962Z,63.66
2022-10-17T21:35:37.574Z,63.23
2022-10-17T21:38:04.215Z,63.82
2022-10-17T21:40:30.828Z,63.70
2022-10-17T21:42:57.450Z,64.10
2022-10-17T21:45:25.789Z,64.09
2022-10-17T21:48:11.723Z,64.56
2022-10-17T21:50:39.385Z,64.54
2022-10-17T21:53:06.081Z,64.43
2022-10-17T21:55:32.711Z,64.13
2022-10-17T21:57:59.330Z,64.22
2022-10-17T22:00:25.912Z,64.12
2022-10-17T22:02:52.526Z,64.33
2022-10-17T22:05:19.120Z,63.99
2022-10-17T22:07:45.758Z,63.79
2022-10-17T22:10:12.343Z,63.54
2022-10-17T22:12:38.969Z,63.66
2022-10-17T22:15:05.837Z,64.22
2022-10-17T22:17:32.648Z,64.28
2022-10-17T22:19:59.484Z,64.18
2022-10-17T22:22:26.087Z,64.11
2022-10-17T22:24:52.682Z,63.52
2022-10-17T22:27:19.300Z,63.38
2022-10-17T22:29:45.903Z,64.46
2022-10-17T22:32:12.552Z,64.97
2022-10-17T22:34:39.169Z,64.98
2022-10-17T22:37:05.787Z,64.47
2022-10-17T22:39:32.372Z,64.28
2022-10-17T22:41:59.004Z,64.53
2022-10-17T22:44:25.599Z,64.16
2022-10-17T22:46:52.255Z,63.44
2022-10-17T22:49:18.908Z,63.85
2022-10-17T22:51:45.499Z,64.60
2022-10-17T22:54:12.129Z,64.49
2022-10-17T22:56:38.754Z,64.71
2022-10-17T22:59:05.367Z,64.17
2022-10-17T23:01:31.989Z,63.77
2022-10-17T23:03:58.647Z,64.25
2022-10-17T23:06:25.232Z,64.26
2022-10-17T23:08:51.875Z,64.50
2022-10-17T23:11:18.494Z,64.56
2022-10-17T23:13:45.105Z,63.55
2022-10-17T23:16:11.715Z,64.63
2022-10-17T23:18:38.313Z,65.18
2022-10-17T23:21:04.938Z,64.57
2022-10-17T23:23:31.535Z,64.66
2022-10-17T23:25:58.158Z,64.67
2022-10-17T23:28:24.820Z,64.94
2022-10-17T23:30:51.455Z,65.62
2022-10-17T23:33:18.082Z,65.99
2022-10-17T23:35:44.683Z,65.78
2022-10-17T23:38:11.287Z,65.44
2022-10-17T23:40:37.907Z,65.10
2022-10-17T23:43:04.503Z,65.09
2022-10-17T23:45:35.969Z,64.98
2022-10-17T23:48:03.608Z,65.25
2022-10-17T23:50:30.268Z,65.14
2022-10-17T23:52:56.849Z,65.16
2022-10-17T23:55:23.428Z,65.01
2022-10-17T23:57:50.062Z,65.26
